Leoville, Canada
Current Conditions -  °F | °C
As of 6:00 PM on Monday 26 Jan 2015 (Local Time) from CYLJ Reporting Station
Few Clouds Few Clouds  
Wind Chill:   Ceiling: Unl
Heat Index:   Visibility: 15mi
Dew Point: -1°   Wind: 7mph
Humidity: 75%   Direction: 240°WSW
Pressure: 29.75"   Gusts: NA
Location:  53.63°N, 107.55°W
Report Text: CYLJ 270000Z 24006KT 15SM FEW080 FEW220 03/M01 A2975 RMK AC2CI1 CI TR SN COV/MEDIUM PACK/LAST OB/NXT 271200 UTC SLP098
Loading
Personal Weather Stations






























Interactive Weather Map New forecast layout! Learn more

10-Day Weather Forecast

Advertisements
Track Severe Weather on mobile